createdAt,value
2022-12-05T00:00:28.812Z,38.60
2022-12-05T00:05:25.380Z,39.20
2022-12-05T00:10:16.406Z,40.97
2022-12-05T00:15:17.333Z,40.33
2022-12-05T00:20:09.869Z,39.00
2022-12-05T00:25:01.105Z,40.03
2022-12-05T00:29:54.886Z,41.77
2022-12-05T00:34:49.021Z,41.20
2022-12-05T00:39:40.317Z,40.60
2022-12-05T00:44:31.336Z,41.13
2022-12-05T00:49:24.542Z,40.05
2022-12-05T00:54:19.544Z,41.10
2022-12-05T00:59:13.452Z,40.63
2022-12-05T01:04:07.842Z,40.55
2022-12-05T01:09:11.985Z,40.83
2022-12-05T01:14:06.616Z,38.93
2022-12-05T01:19:00.609Z,38.17
2022-12-05T01:23:52.111Z,38.88
2022-12-05T01:28:44.220Z,36.97
2022-12-05T01:33:39.900Z,37.03
2022-12-05T01:38:34.679Z,36.78
2022-12-05T01:43:26.084Z,35.58
2022-12-05T01:48:25.351Z,34.50
2022-12-05T01:53:22.839Z,34.20
2022-12-05T01:58:14.614Z,35.28
2022-12-05T02:03:11.562Z,34.45
2022-12-05T02:08:07.780Z,33.97
2022-12-05T02:13:08.296Z,35.85
2022-12-05T02:18:09.840Z,34.40
2022-12-05T02:23:22.702Z,35.28
2022-12-05T02:28:38.016Z,35.15
2022-12-05T02:33:39.237Z,35.40
2022-12-05T02:38:35.059Z,34.40
2022-12-05T02:43:41.055Z,35.85
2022-12-05T02:48:37.678Z,33.78
2022-12-05T02:53:31.489Z,34.72
2022-12-05T02:58:29.147Z,35.03
2022-12-05T03:03:25.188Z,34.17
2022-12-05T03:08:25.643Z,35.53
2022-12-05T03:13:21.478Z,36.45
2022-12-05T03:18:19.460Z,35.07
2022-12-05T03:23:16.550Z,35.42
2022-12-05T03:28:17.968Z,35.53
2022-12-05T03:33:17.285Z,36.08
2022-12-05T03:38:15.180Z,35.70
2022-12-05T03:43:15.195Z,36.63
2022-12-05T03:48:14.395Z,37.35
2022-12-05T03:53:19.484Z,37.03
2022-12-05T03:58:21.149Z,38.35
2022-12-05T04:03:15.442Z,39.05
2022-12-05T04:08:10.531Z,40.57
2022-12-05T04:13:19.371Z,39.77
2022-12-05T04:18:16.721Z,38.05
2022-12-05T04:23:11.264Z,36.67
2022-12-05T04:28:14.484Z,36.20
2022-12-05T04:33:15.128Z,36.63
2022-12-05T04:38:14.593Z,37.50
2022-12-05T04:43:07.865Z,36.17
2022-12-05T04:48:02.216Z,38.03
2022-12-05T04:52:59.179Z,38.50
2022-12-05T04:58:02.403Z,37.63
2022-12-05T05:03:01.338Z,37.72
2022-12-05T05:08:03.722Z,39.17
2022-12-05T05:12:55.110Z,38.55
2022-12-05T05:17:46.111Z,38.72
2022-12-05T05:22:40.632Z,38.28
2022-12-05T05:27:34.961Z,38.10
2022-12-05T05:32:25.816Z,38.65
2022-12-05T05:37:17.135Z,38.95
2022-12-05T05:42:09.011Z,38.73
2022-12-05T05:47:04.144Z,38.60
2022-12-05T05:51:55.718Z,38.37
2022-12-05T05:56:48.114Z,38.22
2022-12-05T06:01:39.066Z,39.33
2022-12-05T06:06:36.235Z,37.78
2022-12-05T06:11:29.399Z,36.78
2022-12-05T06:16:21.737Z,38.28
2022-12-05T06:21:16.421Z,37.63
2022-12-05T06:26:14.935Z,38.13
2022-12-05T06:31:12.531Z,37.70
2022-12-05T06:36:09.491Z,37.17
2022-12-05T06:41:01.543Z,38.17
2022-12-05T06:45:58.835Z,38.42
2022-12-05T06:50:54.588Z,39.38
2022-12-05T06:55:45.357Z,39.00
2022-12-05T07:00:49.027Z,37.60
2022-12-05T07:05:45.377Z,38.28
2022-12-05T07:10:36.771Z,40.40
2022-12-05T07:15:31.904Z,37.83
2022-12-05T07:20:23.100Z,39.17
2022-12-05T07:25:17.279Z,37.05
2022-12-05T07:30:12.110Z,38.47
2022-12-05T07:35:03.610Z,39.28
2022-12-05T07:39:58.913Z,39.67
2022-12-05T07:44:53.800Z,39.40
2022-12-05T07:49:47.056Z,39.35
2022-12-05T07:54:38.139Z,41.47
2022-12-05T07:59:29.184Z,40.95
2022-12-05T08:04:25.095Z,38.75
2022-12-05T08:09:17.669Z,41.57
2022-12-05T08:14:10.219Z,38.63
2022-12-05T08:19:08.654Z,41.45
2022-12-05T08:24:04.914Z,39.92
2022-12-05T08:28:58.301Z,39.70
2022-12-05T08:33:55.560Z,39.25
2022-12-05T08:38:51.586Z,40.10
2022-12-05T08:43:46.518Z,39.65
2022-12-05T08:48:38.718Z,40.58
2022-12-05T08:53:30.798Z,38.47
2022-12-05T08:58:22.119Z,39.42
2022-12-05T09:03:35.694Z,38.87
2022-12-05T09:08:33.171Z,37.60
2022-12-05T09:13:24.994Z,36.67
2022-12-05T09:18:21.587Z,36.80
2022-12-05T09:23:16.115Z,36.80
2022-12-05T09:28:13.956Z,34.87
2022-12-05T09:33:06.379Z,35.33
2022-12-05T09:38:00.167Z,33.58
2022-12-05T09:43:05.134Z,31.73
2022-12-05T09:48:10.312Z,31.90
2022-12-05T09:53:28.436Z,30.98
2022-12-05T09:58:31.613Z,29.52
2022-12-05T10:03:32.591Z,27.75
2022-12-05T10:08:36.634Z,28.03
2022-12-05T10:13:49.513Z,28.30
2022-12-05T10:18:46.316Z,27.87
2022-12-05T10:23:58.368Z,27.20
2022-12-05T10:29:00.020Z,27.13
2022-12-05T10:33:55.555Z,28.98
2022-12-05T10:38:50.518Z,27.80
2022-12-05T10:43:47.475Z,27.65
2022-12-05T10:48:41.238Z,27.85
2022-12-05T10:53:39.610Z,26.57
2022-12-05T10:58:33.838Z,25.52
2022-12-05T11:03:33.066Z,26.88
2022-12-05T11:08:56.125Z,25.60
2022-12-05T11:13:56.985Z,22.83
2022-12-05T11:18:50.727Z,22.20
2022-12-05T11:23:43.424Z,21.35
2022-12-05T11:28:40.775Z,20.92
2022-12-05T11:33:36.262Z,21.57
2022-12-05T11:38:33.028Z,18.80
2022-12-05T11:43:48.722Z,18.38
2022-12-05T11:48:55.107Z,17.63
2022-12-05T11:55:02.823Z,17.23
2022-12-05T12:00:07.690Z,16.05
2022-12-05T12:05:21.954Z,16.10
2022-12-05T12:10:26.951Z,13.73
2022-12-05T12:15:36.846Z,14.63
2022-12-05T12:20:59.729Z,12.45
2022-12-05T12:26:07.591Z,10.30
2022-12-05T12:31:14.892Z,11.02
2022-12-05T12:36:20.006Z,11.23
2022-12-05T12:41:27.560Z,10.83
2022-12-05T12:46:43.793Z,9.70
2022-12-05T12:51:38.646Z,11.00
2022-12-05T12:56:44.628Z,9.45
2022-12-05T13:01:43.044Z,10.60
2022-12-05T13:06:49.329Z,10.40
2022-12-05T13:11:44.809Z,10.57
2022-12-05T13:16:46.162Z,10.37
2022-12-05T13:21:43.618Z,10.90
2022-12-05T13:26:37.376Z,10.27
2022-12-05T13:31:41.022Z,10.25
2022-12-05T13:36:44.398Z,9.75
2022-12-05T13:42:02.299Z,10.18
2022-12-05T13:46:54.256Z,9.63
2022-12-05T13:51:48.476Z,10.82
2022-12-05T13:57:04.385Z,10.95
2022-12-05T14:02:01.324Z,10.68
2022-12-05T14:07:01.396Z,10.53
2022-12-05T14:12:22.451Z,10.93
2022-12-05T14:17:17.666Z,11.82
2022-12-05T14:22:24.673Z,11.43
2022-12-05T14:27:22.540Z,12.45
2022-12-05T14:32:31.280Z,11.80
2022-12-05T14:37:30.758Z,12.57
2022-12-05T14:42:40.389Z,13.02
2022-12-05T14:47:38.363Z,12.20
2022-12-05T14:52:34.585Z,11.20
2022-12-05T14:57:29.724Z,10.95
2022-12-05T15:02:27.667Z,10.32
2022-12-05T15:07:25.709Z,10.55
2022-12-05T15:12:23.824Z,10.80
2022-12-05T15:17:21.760Z,9.27
2022-12-05T15:22:21.268Z,10.75
2022-12-05T15:27:19.635Z,10.45
2022-12-05T15:32:22.281Z,10.32
2022-12-05T15:37:19.092Z,9.57
2022-12-05T15:42:24.816Z,8.50
2022-12-05T15:47:31.036Z,7.90
2022-12-05T15:52:34.463Z,8.20
2022-12-05T15:57:37.077Z,9.55
2022-12-05T16:02:39.278Z,9.05
2022-12-05T16:07:39.145Z,8.73
2022-12-05T16:12:39.277Z,8.00
2022-12-05T16:17:32.399Z,8.30
2022-12-05T16:22:29.679Z,7.60
2022-12-05T16:27:25.808Z,8.38
2022-12-05T16:32:27.616Z,7.70
2022-12-05T16:37:27.617Z,7.53
2022-12-05T16:42:28.124Z,7.43
2022-12-05T16:47:28.501Z,7.55
2022-12-05T16:52:21.281Z,8.00
2022-12-05T16:57:15.523Z,7.72
2022-12-05T17:02:14.789Z,7.70
2022-12-05T17:07:10.100Z,6.90
2022-12-05T17:12:07.186Z,7.43
2022-12-05T17:17:03.201Z,7.20
2022-12-05T17:21:57.142Z,6.32
2022-12-05T17:26:56.731Z,6.43
2022-12-05T17:31:50.990Z,6.45
2022-12-05T17:36:43.398Z,6.53
2022-12-05T17:41:35.094Z,7.10
2022-12-05T17:46:30.677Z,6.67
2022-12-05T17:51:26.012Z,7.10
2022-12-05T17:56:19.814Z,7.28
2022-12-05T18:01:15.494Z,7.47
2022-12-05T18:06:10.691Z,7.53
2022-12-05T18:11:01.294Z,6.67
2022-12-05T18:15:52.778Z,6.88
2022-12-05T18:20:44.699Z,6.78
2022-12-05T18:25:38.257Z,7.07
2022-12-05T18:30:29.426Z,6.97
2022-12-05T18:35:40.803Z,6.95
2022-12-05T18:40:32.796Z,5.80
2022-12-05T18:45:26.492Z,5.55
2022-12-05T18:50:17.989Z,4.95
2022-12-05T18:55:17.126Z,4.55
2022-12-05T19:00:16.968Z,3.78
2022-12-05T19:05:11.455Z,3.80
2022-12-05T19:10:04.296Z,3.90
2022-12-05T19:15:01.047Z,3.93
2022-12-05T19:19:54.284Z,3.83
2022-12-05T19:24:50.990Z,3.22
2022-12-05T19:29:43.156Z,2.93
2022-12-05T19:34:34.659Z,2.90
2022-12-05T19:39:30.340Z,2.83
2022-12-05T19:44:26.618Z,1.83
2022-12-05T19:49:26.269Z,1.80
2022-12-05T19:54:22.636Z,1.65
2022-12-05T19:59:17.868Z,1.50
2022-12-05T20:04:14.871Z,1.23
2022-12-05T20:09:11.162Z,1.15
2022-12-05T20:14:04.931Z,1.00
2022-12-05T20:19:01.535Z,1.30
2022-12-05T20:23:59.001Z,1.70
2022-12-05T20:28:50.677Z,1.90
2022-12-05T20:33:42.244Z,1.70
2022-12-05T20:38:35.948Z,1.90
2022-12-05T20:43:36.210Z,1.60
2022-12-05T20:48:29.600Z,1.40
2022-12-05T20:53:22.838Z,1.27
2022-12-05T20:58:14.079Z,1.10
2022-12-05T21:03:15.620Z,1.85
2022-12-05T21:08:08.909Z,3.35
2022-12-05T21:13:01.542Z,4.25
2022-12-05T21:17:53.103Z,4.68
2022-12-05T21:22:47.986Z,5.10
2022-12-05T21:27:40.483Z,5.10
2022-12-05T21:32:35.196Z,5.60
2022-12-05T21:37:27.496Z,5.53
2022-12-05T21:42:21.210Z,6.25
2022-12-05T21:47:12.447Z,6.18
2022-12-05T21:52:06.680Z,5.40
2022-12-05T21:56:57.836Z,5.73
2022-12-05T22:01:54.696Z,5.43
2022-12-05T22:06:46.674Z,5.38
2022-12-05T22:11:37.775Z,5.60
2022-12-05T22:16:32.736Z,5.50
2022-12-05T22:21:27.237Z,5.57
2022-12-05T22:26:20.650Z,5.43
2022-12-05T22:31:19.167Z,5.53
2022-12-05T22:36:12.926Z,6.15
2022-12-05T22:41:08.625Z,5.60
2022-12-05T22:46:00.518Z,5.18
2022-12-05T22:50:53.173Z,5.57
2022-12-05T22:55:43.371Z,5.80
2022-12-05T23:00:38.551Z,6.05
2022-12-05T23:05:31.842Z,5.55
2022-12-05T23:10:26.332Z,5.57
2022-12-05T23:15:18.139Z,6.75
2022-12-05T23:20:12.579Z,7.10
2022-12-05T23:25:05.792Z,7.65
2022-12-05T23:30:02.305Z,7.20
2022-12-05T23:34:53.943Z,7.47
2022-12-05T23:39:48.549Z,7.00
2022-12-05T23:44:46.368Z,7.07
2022-12-05T23:49:38.628Z,7.20
2022-12-05T23:54:32.149Z,7.88
2022-12-05T23:59:27.763Z,7.90
